createdAt,value
2022-08-01T00:00:47.676Z,62.19
2022-08-01T00:01:27.404Z,66.95
2022-08-01T00:04:42.691Z,68.20
2022-08-01T00:08:06.544Z,67.48
2022-08-01T00:28:25.099Z,67.97
2022-08-01T00:35:07.982Z,71.43
2022-08-01T00:37:46.105Z,72.01
2022-08-01T00:41:32.649Z,72.70
2022-08-01T00:44:51.053Z,78.47
2022-08-01T00:54:24.665Z,88.29
2022-08-01T00:58:01.658Z,91.43
2022-08-01T01:04:42.335Z,98.84
2022-08-01T01:08:02.989Z,99.49
2022-08-01T01:11:44.868Z,100.00
2022-08-01T01:15:06.351Z,100.00
2022-08-01T01:18:35.292Z,100.00
2022-08-01T01:30:00.152Z,100.00
2022-08-01T01:32:53.314Z,100.00
2022-08-01T01:35:38.289Z,100.00
2022-08-01T01:42:02.652Z,100.00
2022-08-01T01:44:41.578Z,100.00
2022-08-01T01:47:16.350Z,100.00
2022-08-01T01:50:16.752Z,100.00
2022-08-01T01:53:51.272Z,100.00
2022-08-01T01:56:31.990Z,100.00
2022-08-01T01:59:05.753Z,100.00
2022-08-01T02:02:05.339Z,100.00
2022-08-01T02:05:09.874Z,100.00
2022-08-01T02:08:08.691Z,100.00
2022-08-01T02:12:07.763Z,100.00
2022-08-01T02:18:34.185Z,100.00
2022-08-01T02:22:37.088Z,100.00
2022-08-01T02:28:47.401Z,100.00
2022-08-01T02:31:26.027Z,100.00
2022-08-01T02:34:15.016Z,100.00
2022-08-01T02:37:00.156Z,100.00
2022-08-01T02:42:41.495Z,100.00
2022-08-01T02:45:11.127Z,100.00
2022-08-01T02:47:51.430Z,100.00
2022-08-01T02:50:20.180Z,100.00
2022-08-01T02:53:14.776Z,100.00
2022-08-01T02:55:45.979Z,100.00
2022-08-01T02:58:38.261Z,100.00
2022-08-01T03:01:08.125Z,100.00
2022-08-01T03:03:48.382Z,100.00
2022-08-01T03:06:19.598Z,100.00
2022-08-01T03:09:19.355Z,100.00
2022-08-01T03:11:51.650Z,100.00
2022-08-01T03:14:38.805Z,100.00
2022-08-01T03:17:07.290Z,100.00
2022-08-01T03:19:36.230Z,100.00
2022-08-01T03:22:39.215Z,100.00
2022-08-01T03:25:31.996Z,100.00
2022-08-01T03:28:13.137Z,100.00
2022-08-01T03:31:10.586Z,100.00
2022-08-01T03:33:55.499Z,100.00
2022-08-01T03:37:10.876Z,100.00
2022-08-01T03:40:37.244Z,100.00
2022-08-01T03:43:12.565Z,100.00
2022-08-01T03:45:52.813Z,100.00
2022-08-01T03:48:29.107Z,100.00
2022-08-01T03:51:00.168Z,100.00
2022-08-01T03:53:36.599Z,100.00
2022-08-01T03:56:17.753Z,100.00
2022-08-01T03:58:50.072Z,100.00
2022-08-01T04:01:19.324Z,100.00
2022-08-01T04:03:50.794Z,100.00
2022-08-01T04:09:34.086Z,100.00
2022-08-01T04:12:20.134Z,100.00
2022-08-01T04:14:47.997Z,100.00
2022-08-01T04:17:18.706Z,100.00
2022-08-01T04:19:51.886Z,100.00
2022-08-01T04:22:19.078Z,100.00
2022-08-01T04:25:02.703Z,100.00
2022-08-01T04:27:50.646Z,100.00
2022-08-01T04:30:32.023Z,100.00
2022-08-01T04:33:02.416Z,100.00
2022-08-01T04:36:03.929Z,100.00
2022-08-01T04:38:37.829Z,100.00
2022-08-01T04:41:09.363Z,100.00
2022-08-01T04:43:38.747Z,100.00
2022-08-01T04:46:09.106Z,100.00
2022-08-01T04:48:54.065Z,100.00
2022-08-01T04:52:03.035Z,100.00
2022-08-01T04:54:39.275Z,100.00
2022-08-01T04:57:07.730Z,100.00
2022-08-01T05:00:26.357Z,100.00
2022-08-01T05:02:53.521Z,100.00
2022-08-01T05:05:28.455Z,100.00
2022-08-01T05:08:07.036Z,100.00
2022-08-01T05:11:17.278Z,100.00
2022-08-01T05:13:49.889Z,100.00
2022-08-01T05:16:43.572Z,100.00
2022-08-01T05:19:10.925Z,100.00
2022-08-01T05:21:38.548Z,100.00
2022-08-01T05:24:50.680Z,100.00
2022-08-01T05:27:28.852Z,100.00
2022-08-01T05:30:04.050Z,100.00
2022-08-01T05:32:33.119Z,100.00
2022-08-01T05:35:00.603Z,100.00
2022-08-01T05:37:34.408Z,100.00
2022-08-01T05:40:04.813Z,100.00
2022-08-01T05:42:32.114Z,100.00
2022-08-01T05:45:32.028Z,100.00
2022-08-01T05:48:30.130Z,100.00
2022-08-01T05:51:02.867Z,100.00
2022-08-01T05:53:35.478Z,100.00
2022-08-01T05:56:38.062Z,100.00
2022-08-01T05:59:08.554Z,100.00
2022-08-01T06:01:36.051Z,100.00
2022-08-01T06:04:03.809Z,100.00
2022-08-01T06:06:30.940Z,100.00
2022-08-01T06:09:06.907Z,100.00
2022-08-01T06:11:34.359Z,100.00
2022-08-01T06:14:17.713Z,100.00
2022-08-01T06:17:07.853Z,100.00
2022-08-01T06:20:11.951Z,100.00
2022-08-01T06:23:13.637Z,100.00
2022-08-01T06:26:10.339Z,100.00
2022-08-01T06:29:20.670Z,100.00
2022-08-01T06:36:58.142Z,100.00
2022-08-01T06:41:00.128Z,100.00
2022-08-01T06:43:58.465Z,100.00
2022-08-01T06:46:39.397Z,100.00
2022-08-01T06:49:45.489Z,100.00
2022-08-01T06:55:52.944Z,100.00
2022-08-01T07:01:42.585Z,100.00
2022-08-01T07:19:59.254Z,100.00
2022-08-01T07:38:20.982Z,100.00
2022-08-01T07:42:08.461Z,99.39
2022-08-01T07:45:28.166Z,99.25
2022-08-01T07:48:55.384Z,99.75
2022-08-01T07:52:45.120Z,95.39
2022-08-01T07:55:58.424Z,97.28
2022-08-01T07:59:13.150Z,98.78
2022-08-01T08:02:00.989Z,97.57
2022-08-01T08:04:53.753Z,95.37
2022-08-01T08:07:24.009Z,94.49
2022-08-01T08:09:53.955Z,94.97
2022-08-01T08:15:20.760Z,96.22
2022-08-01T08:17:59.127Z,93.66
2022-08-01T08:20:43.420Z,92.96
2022-08-01T08:27:26.270Z,94.69
2022-08-01T08:32:53.488Z,90.34
2022-08-01T08:36:01.892Z,92.09
2022-08-01T08:41:49.545Z,89.69
2022-08-01T08:45:14.946Z,89.62
2022-08-01T08:48:11.027Z,93.17
2022-08-01T08:51:03.571Z,92.78
2022-08-01T08:53:34.564Z,93.79
2022-08-01T08:56:30.762Z,93.03
2022-08-01T09:05:23.460Z,87.04
2022-08-01T09:08:29.311Z,87.05
2022-08-01T09:11:22.784Z,87.38
2022-08-01T09:14:26.632Z,85.71
2022-08-01T09:17:21.810Z,82.25
2022-08-01T09:19:57.837Z,82.16
2022-08-01T09:22:27.095Z,83.50
2022-08-01T09:25:59.261Z,85.90
2022-08-01T09:36:23.273Z,89.81
2022-08-01T09:39:15.643Z,89.46
2022-08-01T09:41:54.940Z,88.98
2022-08-01T09:44:55.524Z,85.27
2022-08-01T09:47:38.859Z,84.88
2022-08-01T09:50:12.814Z,83.10
2022-08-01T09:52:54.003Z,83.53
2022-08-01T09:55:23.190Z,82.53
2022-08-01T09:58:04.866Z,84.78
2022-08-01T10:00:45.281Z,84.52
2022-08-01T10:03:28.281Z,84.74
2022-08-01T10:05:55.996Z,84.95
2022-08-01T10:08:30.122Z,86.24
2022-08-01T10:11:13.890Z,84.45
2022-08-01T10:13:47.106Z,85.33
2022-08-01T10:16:16.711Z,84.34
2022-08-01T10:18:45.777Z,87.59
2022-08-01T10:21:15.816Z,86.57
2022-08-01T10:23:44.946Z,84.64
2022-08-01T10:26:17.894Z,83.10
2022-08-01T10:29:24.199Z,81.10
2022-08-01T10:32:10.284Z,78.23
2022-08-01T10:34:44.833Z,80.71
2022-08-01T10:37:15.879Z,81.48
2022-08-01T10:39:46.866Z,82.32
2022-08-01T10:42:23.854Z,80.30
2022-08-01T10:45:16.593Z,80.77
2022-08-01T10:49:02.095Z,79.37
2022-08-01T10:51:52.467Z,80.58
2022-08-01T10:54:35.813Z,79.62
2022-08-01T10:57:52.686Z,80.42
2022-08-01T11:00:22.852Z,82.25
2022-08-01T11:04:01.445Z,84.06
2022-08-01T11:06:34.933Z,84.93
2022-08-01T11:10:52.164Z,87.83
2022-08-01T11:14:12.973Z,87.08
2022-08-01T11:16:47.071Z,85.70
2022-08-01T11:24:11.365Z,84.90
2022-08-01T11:27:35.001Z,83.85
2022-08-01T11:30:13.393Z,83.19
2022-08-01T11:33:11.139Z,83.64
2022-08-01T11:36:16.908Z,86.28
2022-08-01T11:39:38.242Z,88.39
2022-08-01T11:42:23.069Z,87.27
2022-08-01T11:45:20.636Z,93.35
2022-08-01T11:47:59.687Z,93.38
2022-08-01T11:50:39.239Z,91.18
2022-08-01T11:53:16.598Z,89.08
2022-08-01T11:55:54.540Z,86.78
2022-08-01T11:58:55.501Z,86.25
2022-08-01T12:01:36.439Z,86.94
2022-08-01T12:04:10.161Z,88.04
2022-08-01T12:07:19.129Z,86.49
2022-08-01T12:10:01.128Z,88.81
2022-08-01T12:16:00.394Z,82.30
2022-08-01T12:18:53.277Z,82.90
2022-08-01T12:22:30.111Z,82.11
2022-08-01T12:25:19.659Z,90.16
2022-08-01T12:28:30.421Z,92.12
2022-08-01T12:31:07.044Z,92.04
2022-08-01T12:33:45.544Z,92.23
2022-08-01T12:37:09.899Z,89.94
2022-08-01T12:39:54.742Z,89.04
2022-08-01T12:42:22.308Z,89.34
2022-08-01T12:45:20.662Z,86.68
2022-08-01T12:47:55.891Z,86.86
2022-08-01T12:50:42.045Z,85.99
2022-08-01T12:53:39.892Z,85.92
2022-08-01T12:56:18.269Z,84.29
2022-08-01T12:59:27.713Z,81.55
2022-08-01T13:02:10.223Z,82.36
2022-08-01T13:05:00.287Z,79.97
2022-08-01T13:08:42.829Z,82.36
2022-08-01T13:12:04.299Z,82.98
2022-08-01T13:14:50.383Z,83.65
2022-08-01T13:17:40.523Z,83.46
2022-08-01T13:20:11.651Z,84.98
2022-08-01T13:22:39.566Z,85.57
2022-08-01T13:25:22.998Z,83.48
2022-08-01T13:28:12.144Z,85.58
2022-08-01T13:31:11.629Z,82.64
2022-08-01T13:33:54.285Z,80.47
2022-08-01T13:36:39.237Z,80.46
2022-08-01T13:39:29.458Z,78.84
2022-08-01T13:42:06.999Z,77.87
2022-08-01T13:45:14.426Z,80.14
2022-08-01T13:48:03.737Z,79.10
2022-08-01T13:50:35.675Z,74.86
2022-08-01T13:53:06.353Z,76.33
2022-08-01T13:55:36.746Z,77.27
2022-08-01T13:58:05.054Z,74.38
2022-08-01T14:00:35.785Z,76.56
2022-08-01T14:03:03.705Z,77.30
2022-08-01T14:05:34.992Z,76.72
2022-08-01T14:08:02.250Z,77.83
2022-08-01T14:10:30.154Z,78.64
2022-08-01T14:12:58.976Z,76.22
2022-08-01T14:15:37.311Z,75.86
2022-08-01T14:18:09.538Z,74.85
2022-08-01T14:20:46.516Z,72.91
2022-08-01T14:23:16.350Z,70.04
2022-08-01T14:26:01.790Z,72.21
2022-08-01T14:28:34.351Z,72.09
2022-08-01T14:31:01.576Z,71.41
2022-08-01T14:33:29.083Z,72.31
2022-08-01T14:36:06.728Z,73.56
2022-08-01T14:38:48.150Z,73.30
2022-08-01T14:41:19.478Z,72.14
2022-08-01T14:43:46.975Z,74.22
2022-08-01T14:46:14.498Z,74.82
2022-08-01T14:48:48.599Z,73.62
2022-08-01T14:51:15.763Z,75.24
2022-08-01T14:53:50.899Z,75.12
2022-08-01T14:56:37.912Z,76.25
2022-08-01T14:59:20.917Z,75.62
2022-08-01T15:01:55.057Z,74.79
2022-08-01T15:04:29.224Z,73.86
2022-08-01T15:07:11.138Z,71.40
2022-08-01T15:09:44.773Z,70.00
2022-08-01T15:12:15.458Z,68.02
2022-08-01T15:14:50.548Z,64.76
2022-08-01T15:17:33.364Z,62.93
2022-08-01T15:20:07.717Z,59.57
2022-08-01T15:25:25.004Z,57.53
2022-08-01T15:27:52.686Z,57.95
2022-08-01T15:30:27.429Z,55.96
2022-08-01T15:32:55.334Z,52.75
2022-08-01T15:35:28.683Z,54.80
2022-08-01T15:37:56.117Z,56.04
2022-08-01T15:41:15.488Z,54.07
2022-08-01T15:43:44.151Z,53.70
2022-08-01T15:46:12.761Z,56.97
2022-08-01T15:48:41.019Z,57.93
2022-08-01T15:51:10.631Z,56.29
2022-08-01T15:53:40.951Z,55.87
2022-08-01T15:56:11.236Z,54.23
2022-08-01T15:58:40.525Z,53.12
2022-08-01T16:01:07.748Z,54.94
2022-08-01T16:03:37.843Z,53.24
2022-08-01T16:06:25.743Z,55.59
2022-08-01T16:08:52.914Z,54.33
2022-08-01T16:11:20.706Z,55.71
2022-08-01T16:13:48.720Z,56.17
2022-08-01T16:16:19.039Z,56.01
2022-08-01T16:18:46.549Z,57.26
2022-08-01T16:21:31.888Z,56.99
2022-08-01T16:24:01.591Z,58.03
2022-08-01T16:26:28.833Z,58.23
2022-08-01T16:28:56.295Z,59.00
2022-08-01T16:31:50.107Z,57.91
2022-08-01T16:34:27.460Z,57.36
2022-08-01T16:37:07.575Z,56.96
2022-08-01T16:39:35.392Z,57.75
2022-08-01T16:42:02.770Z,57.09
2022-08-01T16:44:33.640Z,56.56
2022-08-01T16:47:05.224Z,58.25
2022-08-01T16:49:33.272Z,57.47
2022-08-01T16:52:01.177Z,59.43
2022-08-01T16:54:28.886Z,59.44
2022-08-01T16:57:07.865Z,59.18
2022-08-01T16:59:41.227Z,60.01
2022-08-01T17:02:13.931Z,59.95
2022-08-01T17:04:41.333Z,60.63
2022-08-01T17:07:08.872Z,59.96
2022-08-01T17:09:43.362Z,60.60
2022-08-01T17:12:13.172Z,62.11
2022-08-01T17:14:41.467Z,63.03
2022-08-01T17:17:10.523Z,63.28
2022-08-01T17:19:38.008Z,62.73
2022-08-01T17:22:05.543Z,62.86
2022-08-01T17:24:32.784Z,63.01
2022-08-01T17:27:02.909Z,62.93
2022-08-01T17:29:43.967Z,63.08
2022-08-01T17:32:13.293Z,62.81
2022-08-01T17:34:42.840Z,63.33
2022-08-01T17:37:13.786Z,62.27
2022-08-01T17:39:41.550Z,64.11
2022-08-01T17:42:11.075Z,63.60
2022-08-01T17:44:39.097Z,64.52
2022-08-01T17:47:09.285Z,63.45
2022-08-01T17:52:26.201Z,62.70
2022-08-01T17:54:57.269Z,64.26
2022-08-01T17:57:30.984Z,64.06
2022-08-01T17:59:58.545Z,65.02
2022-08-01T18:02:26.570Z,67.24
2022-08-01T18:04:54.245Z,66.99
2022-08-01T18:07:22.411Z,68.17
2022-08-01T18:10:11.763Z,67.30
2022-08-01T18:12:39.382Z,66.98
2022-08-01T18:15:07.182Z,66.52
2022-08-01T18:17:34.514Z,67.29
2022-08-01T18:20:01.655Z,67.08
2022-08-01T18:22:33.136Z,68.03
2022-08-01T18:25:05.533Z,67.18
2022-08-01T18:28:22.279Z,67.91
2022-08-01T18:30:23.654Z,68.44
2022-08-01T18:32:50.756Z,69.51
2022-08-01T18:35:21.023Z,68.70
2022-08-01T18:37:55.285Z,68.88
2022-08-01T18:40:23.365Z,69.05
2022-08-01T18:42:50.740Z,68.27
2022-08-01T18:45:18.137Z,67.68
2022-08-01T18:47:46.374Z,69.55
2022-08-01T18:50:13.784Z,68.66
2022-08-01T18:52:42.755Z,69.23
2022-08-01T18:55:10.398Z,68.55
2022-08-01T18:57:42.107Z,68.39
2022-08-01T19:00:11.547Z,69.64
2022-08-01T19:02:38.672Z,69.59
2022-08-01T19:05:06.505Z,70.49
2022-08-01T19:08:05.126Z,70.24
2022-08-01T19:10:21.613Z,68.95
2022-08-01T19:12:49.178Z,70.00
2022-08-01T19:15:16.619Z,69.86
2022-08-01T19:17:45.370Z,69.14
2022-08-01T19:20:15.659Z,70.27
2022-08-01T19:22:42.985Z,69.59
2022-08-01T19:25:10.199Z,70.53
2022-08-01T19:27:44.189Z,71.01
2022-08-01T19:30:12.330Z,70.38
2022-08-01T19:32:42.061Z,71.60
2022-08-01T19:35:15.201Z,71.25
2022-08-01T19:37:47.129Z,70.69
2022-08-01T19:40:26.315Z,70.42
2022-08-01T19:42:57.466Z,71.90
2022-08-01T19:45:29.971Z,71.75
2022-08-01T19:48:01.085Z,71.14
2022-08-01T19:50:32.339Z,71.66
2022-08-01T19:53:07.572Z,71.60
2022-08-01T19:55:41.274Z,70.90
2022-08-01T19:58:26.358Z,71.08
2022-08-01T20:00:54.686Z,70.02
2022-08-01T20:03:23.643Z,69.82
2022-08-01T20:05:51.973Z,70.84
2022-08-01T20:08:24.548Z,70.79
2022-08-01T20:10:52.845Z,72.80
2022-08-01T20:13:21.423Z,71.13
2022-08-01T20:15:49.347Z,72.46
2022-08-01T20:18:17.818Z,72.77
2022-08-01T20:20:47.279Z,74.24
2022-08-01T20:23:18.719Z,74.74
2022-08-01T20:25:54.834Z,74.14
2022-08-01T20:28:27.815Z,75.69
2022-08-01T20:31:05.515Z,75.91
2022-08-01T20:33:39.432Z,78.05
2022-08-01T20:36:12.041Z,76.16
2022-08-01T20:38:56.535Z,78.17
2022-08-01T20:41:26.979Z,78.73
2022-08-01T20:43:59.506Z,79.01
2022-08-01T20:46:29.307Z,81.01
2022-08-01T20:49:00.893Z,79.58
2022-08-01T20:51:31.799Z,82.48
2022-08-01T20:53:59.121Z,82.94
2022-08-01T20:56:45.282Z,81.95
2022-08-01T20:59:54.874Z,84.18
2022-08-01T21:02:54.292Z,84.66
2022-08-01T21:05:30.813Z,85.26
2022-08-01T21:08:29.629Z,85.33
2022-08-01T21:10:59.857Z,87.47
2022-08-01T21:13:41.189Z,89.40
2022-08-01T21:16:23.998Z,89.93
2022-08-01T21:22:00.658Z,93.06
2022-08-01T21:24:45.488Z,94.08
2022-08-01T21:27:33.691Z,92.94
2022-08-01T21:30:12.641Z,93.72
2022-08-01T21:32:47.588Z,94.45
2022-08-01T21:35:18.451Z,93.94
2022-08-01T21:37:54.025Z,93.86
2022-08-01T21:40:26.603Z,94.08
2022-08-01T21:42:59.634Z,94.91
2022-08-01T21:45:28.196Z,95.04
2022-08-01T21:47:57.609Z,94.73
2022-08-01T21:50:26.058Z,94.64
2022-08-01T21:53:32.491Z,94.01
2022-08-01T21:57:17.757Z,95.72
2022-08-01T22:00:29.638Z,97.51
2022-08-01T22:07:21.617Z,98.52
2022-08-01T22:10:17.007Z,100.00
2022-08-01T22:12:47.948Z,99.67
2022-08-01T22:15:20.582Z,97.87
2022-08-01T22:17:55.168Z,95.71
2022-08-01T22:20:27.646Z,94.20
2022-08-01T22:22:58.979Z,94.23
2022-08-01T22:25:29.388Z,92.27
2022-08-01T22:28:10.138Z,95.96
2022-08-01T22:30:42.745Z,95.45
2022-08-01T22:33:17.982Z,95.77
2022-08-01T22:35:56.030Z,95.28
2022-08-01T22:39:00.541Z,94.12
2022-08-01T22:42:01.485Z,94.01
2022-08-01T22:45:05.494Z,92.35
2022-08-01T22:48:13.068Z,93.57
2022-08-01T22:51:02.073Z,96.41
2022-08-01T22:54:02.153Z,98.89
2022-08-01T22:56:49.505Z,100.00
2022-08-01T22:59:25.189Z,99.39
2022-08-01T23:02:20.016Z,98.52
2022-08-01T23:04:57.442Z,98.17
2022-08-01T23:07:42.211Z,97.19
2022-08-01T23:10:16.182Z,98.83
2022-08-01T23:12:47.773Z,98.93
2022-08-01T23:15:17.871Z,99.53
2022-08-01T23:17:52.927Z,100.00
2022-08-01T23:20:20.591Z,95.96
2022-08-01T23:22:49.560Z,98.21
2022-08-01T23:25:19.705Z,97.73
2022-08-01T23:27:55.706Z,98.19
2022-08-01T23:30:35.469Z,96.44
2022-08-01T23:33:05.487Z,96.77
2022-08-01T23:35:47.690Z,95.34
2022-08-01T23:38:22.868Z,93.73
2022-08-01T23:40:53.503Z,94.04
2022-08-01T23:43:24.418Z,93.98
2022-08-01T23:46:04.744Z,93.54
2022-08-01T23:48:38.178Z,95.02
2022-08-01T23:51:09.337Z,97.17
2022-08-01T23:53:42.085Z,99.52
2022-08-01T23:56:12.168Z,99.83
2022-08-01T23:58:43.061Z,98.29
